Time;durP1;ratioP1;P1;durP2;ratioP2;P2;SDS_P1;SDS_P2;PMS_P1;PMS_P2;Temp;Humidity;BMP_temperature;BMP_pressure;BME280_temperature;BME280_humidity;BME280_pressure;Samples;Min_cycle;Max_cycle;Signal;HPM_P1;HPM_P2
2021/07/18 00:02:16;;;;;;;5.15;3.03;;;16.80;99.90;;;;;;4917002;29;20028;-72
2021/07/18 00:04:42;;;;;;;4.90;3.08;;;16.80;99.90;;;;;;4917415;29;20083;-72
2021/07/18 00:07:07;;;;;;;6.13;3.25;;;16.80;99.90;;;;;;4917145;29;20028;-72
2021/07/18 00:09:33;;;;;;;7.40;3.72;;;16.80;99.90;;;;;;4917167;29;20032;-72
2021/07/18 00:11:59;;;;;;;6.20;3.88;;;16.80;99.90;;;;;;4917072;29;20112;-72
2021/07/18 00:14:25;;;;;;;6.35;3.78;;;16.70;99.90;;;;;;4917061;29;20039;-72
2021/07/18 00:16:50;;;;;;;5.97;3.97;;;16.70;99.90;;;;;;4916876;29;20020;-72
2021/07/18 00:19:16;;;;;;;15.35;4.55;;;16.60;99.90;;;;;;4916944;29;20124;-72
2021/07/18 00:21:42;;;;;;;6.72;3.67;;;16.70;99.90;;;;;;4917146;29;20028;-72
2021/07/18 00:24:08;;;;;;;4.30;3.35;;;16.60;99.90;;;;;;4916866;29;20458;-72
2021/07/18 00:26:34;;;;;;;4.30;3.28;;;16.60;99.90;;;;;;4916720;29;20028;-72
2021/07/18 00:28:59;;;;;;;5.07;4.00;;;16.50;99.90;;;;;;4916633;29;20063;-72
2021/07/18 00:31:25;;;;;;;7.65;3.63;;;16.40;99.90;;;;;;4916575;29;20111;-72
2021/07/18 00:33:51;;;;;;;6.85;4.07;;;16.40;99.90;;;;;;4916570;29;20047;-72
2021/07/18 00:36:17;;;;;;;5.90;3.67;;;16.30;99.90;;;;;;4916664;29;20498;-72
2021/07/18 00:38:42;;;;;;;3.88;2.78;;;16.30;99.90;;;;;;4916711;29;20522;-72
2021/07/18 00:41:08;;;;;;;5.70;3.25;;;16.30;99.90;;;;;;4916790;29;20020;-72
2021/07/18 00:43:34;;;;;;;5.38;2.17;;;16.20;99.90;;;;;;4916288;29;20384;-72
2021/07/18 00:46:01;;;;;;;4.38;2.20;;;16.00;99.90;;;;;;4916720;29;20016;-72
2021/07/18 00:48:30;;;;;;;3.85;2.30;;;16.00;99.90;;;;;;4916213;29;20494;-72
2021/07/18 00:50:57;;;;;;;5.03;2.10;;;15.90;99.90;;;;;;4916622;29;20039;-72
2021/07/18 00:53:23;;;;;;;6.03;2.20;;;15.80;99.90;;;;;;4915833;29;20071;-72
2021/07/18 00:55:51;;;;;;;9.23;2.08;;;15.70;99.90;;;;;;4916540;29;20567;-72
2021/07/18 00:58:17;;;;;;;2.80;1.90;;;15.70;99.90;;;;;;4916083;29;20061;-72
2021/07/18 01:00:43;;;;;;;4.70;1.83;;;15.70;99.90;;;;;;4916556;29;20043;-72
2021/07/18 01:03:09;;;;;;;4.68;1.95;;;15.70;99.90;;;;;;4916057;29;20035;-72
2021/07/18 01:05:35;;;;;;;4.40;1.80;;;15.70;99.90;;;;;;4916290;29;20020;-72
2021/07/18 01:08:02;;;;;;;6.35;2.15;;;15.60;99.90;;;;;;4916293;29;20111;-72
2021/07/18 01:10:28;;;;;;;3.53;1.77;;;15.60;99.90;;;;;;4916259;29;20080;-72
2021/07/18 01:12:54;;;;;;;4.30;1.65;;;15.60;99.90;;;;;;4916226;29;20535;-72
2021/07/18 01:15:20;;;;;;;2.78;1.52;;;15.60;99.90;;;;;;4916190;29;20032;-72
2021/07/18 01:53:56;;;;;;;2.50;1.60;;;15.20;99.90;;;;;;4912128;26;20517;-71
2021/07/18 01:56:23;;;;;;;3.03;1.92;;;15.20;99.90;;;;;;4953733;29;20086;-71
2021/07/18 01:58:50;;;;;;;5.45;2.33;;;15.10;99.90;;;;;;4953701;29;20035;-71
2021/07/18 02:01:18;;;;;;;3.10;1.80;;;15.10;99.90;;;;;;4953817;29;20054;-71
2021/07/18 02:03:45;;;;;;;4.03;2.20;;;15.10;99.90;;;;;;4953276;29;20041;-71
2021/07/18 02:06:11;;;;;;;4.43;2.30;;;15.20;99.90;;;;;;4953367;29;20095;-71
2021/07/18 02:08:37;;;;;;;2.50;1.75;;;15.10;99.90;;;;;;4953828;29;20028;-71
2021/07/18 02:11:03;;;;;;;1.80;1.50;;;15.20;99.90;;;;;;4939090;29;20023;-71
2021/07/18 02:13:29;;;;;;;3.45;2.10;;;15.20;99.90;;;;;;4957483;29;20437;-71
2021/07/18 02:15:58;;;;;;;3.33;1.90;;;15.10;99.90;;;;;;4957573;29;20106;-71
2021/07/18 02:18:24;;;;;;;2.17;1.70;;;15.10;99.90;;;;;;4957283;29;20027;-71
2021/07/18 02:20:49;;;;;;;2.00;1.80;;;15.00;99.90;;;;;;4957517;29;20387;-71
2021/07/18 02:23:15;;;;;;;5.35;1.88;;;15.00;99.90;;;;;;4957029;29;20414;-71
2021/07/18 02:25:41;;;;;;;2.95;1.70;;;15.00;99.90;;;;;;4957246;29;20030;-71
2021/07/18 02:28:07;;;;;;;4.65;1.73;;;15.10;99.90;;;;;;4957207;29;20035;-71
2021/07/18 02:30:32;;;;;;;2.20;1.38;;;15.00;99.90;;;;;;4957050;29;20058;-71
2021/07/18 02:32:58;;;;;;;2.83;1.40;;;14.90;99.90;;;;;;4956838;29;20032;-71
2021/07/18 02:35:24;;;;;;;3.70;1.25;;;14.80;99.90;;;;;;4957251;29;20035;-72
2021/07/18 02:37:50;;;;;;;1.80;1.25;;;14.80;99.90;;;;;;4956849;29;20379;-71
2021/07/18 02:40:19;;;;;;;1.33;1.15;;;14.70;99.90;;;;;;4956798;29;20489;-71
2021/07/18 02:42:45;;;;;;;2.15;1.10;;;14.70;99.90;;;;;;4957061;29;20525;-71
2021/07/18 02:45:13;;;;;;;1.52;1.20;;;14.70;99.90;;;;;;4957001;29;20451;-71
2021/07/18 02:47:40;;;;;;;1.65;1.10;;;14.60;99.90;;;;;;4956633;29;20086;-71
2021/07/18 02:50:07;;;;;;;1.77;1.42;;;14.60;99.90;;;;;;4956567;29;20550;-71
2021/07/18 02:52:33;;;;;;;2.95;1.30;;;14.60;99.90;;;;;;4947334;29;20047;-71
2021/07/18 02:54:59;;;;;;;1.98;1.15;;;14.60;99.90;;;;;;4937460;29;20493;-71
2021/07/18 02:57:24;;;;;;;1.15;1.00;;;14.60;99.90;;;;;;4937584;29;20032;-71
2021/07/18 02:59:51;;;;;;;1.83;1.20;;;14.50;99.90;;;;;;4937304;29;20024;-71
2021/07/18 03:02:17;;;;;;;1.52;1.13;;;14.50;99.90;;;;;;4937163;29;20423;-71
2021/07/18 03:04:43;;;;;;;1.30;1.20;;;14.50;99.90;;;;;;4937268;29;20074;-71
2021/07/18 03:07:09;;;;;;;1.70;1.15;;;14.50;99.90;;;;;;4937098;29;20107;-71
2021/07/18 03:09:35;;;;;;;1.73;1.30;;;14.60;99.90;;;;;;4937148;29;20079;-71
2021/07/18 03:12:00;;;;;;;1.55;1.00;;;14.60;99.90;;;;;;4937137;29;20027;-71
2021/07/18 03:14:26;;;;;;;1.77;1.30;;;14.60;99.90;;;;;;4937278;29;20043;-71
2021/07/18 03:16:52;;;;;;;2.03;1.10;;;14.50;99.90;;;;;;4936878;29;20420;-71
2021/07/18 03:19:18;;;;;;;3.47;1.17;;;14.50;99.90;;;;;;4936922;29;20024;-71
2021/07/18 03:21:44;;;;;;;1.75;1.10;;;14.50;99.90;;;;;;4937229;29;20379;-71
2021/07/18 03:24:10;;;;;;;1.50;1.00;;;14.60;99.90;;;;;;4936748;29;20034;-71
2021/07/18 03:26:36;;;;;;;2.33;1.20;;;14.60;99.90;;;;;;4936906;29;20023;-71
2021/07/18 03:29:02;;;;;;;1.48;1.20;;;14.50;99.90;;;;;;4936731;29;20059;-71
2021/07/18 03:31:28;;;;;;;1.40;1.00;;;14.50;99.90;;;;;;4936843;29;20107;-71
2021/07/18 03:33:53;;;;;;;2.35;1.15;;;14.50;99.90;;;;;;4936918;29;20135;-71
2021/07/18 03:36:19;;;;;;;1.83;1.33;;;14.40;99.90;;;;;;4936520;29;20039;-71
2021/07/18 03:38:45;;;;;;;2.17;1.45;;;14.40;99.90;;;;;;4936891;29;20215;-71
2021/07/18 03:41:10;;;;;;;1.63;1.17;;;14.30;99.90;;;;;;4936835;29;20431;-71
2021/07/18 03:43:36;;;;;;;2.33;1.27;;;14.30;99.90;;;;;;4936705;29;20526;-71
2021/07/18 03:46:03;;;;;;;1.80;1.20;;;14.30;99.90;;;;;;4936651;29;20463;-71
2021/07/18 03:48:31;;;;;;;1.58;1.30;;;14.30;99.90;;;;;;4936513;29;20027;-71
2021/07/18 03:50:57;;;;;;;2.60;1.50;;;14.30;99.90;;;;;;4936790;29;20063;-71
2021/07/18 03:53:23;;;;;;;1.40;1.20;;;14.30;99.90;;;;;;4935922;29;20487;-71
2021/07/18 03:55:49;;;;;;;3.28;1.63;;;14.30;99.90;;;;;;4936536;29;20027;-71
2021/07/18 03:58:15;;;;;;;1.70;1.17;;;14.30;99.90;;;;;;4936070;29;20438;-72
2021/07/18 04:00:40;;;;;;;1.77;1.40;;;14.20;99.90;;;;;;4936657;29;20032;-71
2021/07/18 04:03:06;;;;;;;2.35;1.15;;;14.10;99.90;;;;;;4936006;29;20110;-71
2021/07/18 04:05:32;;;;;;;3.10;1.48;;;14.10;99.90;;;;;;4936298;29;20024;-71
2021/07/18 04:07:59;;;;;;;2.30;1.48;;;14.10;99.90;;;;;;4936156;29;20498;-71
2021/07/18 04:10:25;;;;;;;3.30;1.60;;;14.10;99.90;;;;;;4935948;29;20040;-71
2021/07/18 04:12:51;;;;;;;3.53;1.40;;;14.10;99.90;;;;;;4936030;29;20055;-71
2021/07/18 04:15:17;;;;;;;3.03;1.42;;;14.20;99.90;;;;;;4935771;29;20044;-71
2021/07/18 04:17:42;;;;;;;2.42;1.60;;;14.30;99.90;;;;;;4936002;29;20028;-71
2021/07/18 04:20:09;;;;;;;2.50;1.40;;;14.50;99.90;;;;;;4936181;29;20054;-71
2021/07/18 04:22:35;;;;;;;2.10;1.42;;;14.80;99.90;;;;;;4936275;29;20039;-71
2021/07/18 04:25:00;;;;;;;2.20;1.73;;;14.80;99.90;;;;;;4935984;29;20471;-71
2021/07/18 04:27:26;;;;;;;2.05;1.27;;;14.80;99.90;;;;;;4935941;29;20031;-71
2021/07/18 04:29:52;;;;;;;1.83;1.40;;;14.80;99.90;;;;;;4935756;29;20028;-71
2021/07/18 04:32:18;;;;;;;7.22;1.58;;;14.80;99.90;;;;;;4935025;29;20028;-71
2021/07/18 04:34:43;;;;;;;2.25;1.58;;;14.80;99.90;;;;;;4935480;29;20035;-71
2021/07/18 04:37:12;;;;;;;1.85;1.40;;;14.80;99.90;;;;;;4935748;29;20030;-71
2021/07/18 04:39:39;;;;;;;3.88;1.80;;;14.70;99.90;;;;;;4935787;29;20032;-72
2021/07/18 04:42:05;;;;;;;1.80;1.40;;;14.70;99.90;;;;;;4935554;29;20063;-71
2021/07/18 04:44:32;;;;;;;2.20;1.55;;;14.70;99.90;;;;;;4918326;29;20400;-71
2021/07/18 04:46:58;;;;;;;1.40;1.20;;;14.70;99.90;;;;;;4935373;29;20031;-71
2021/07/18 04:49:25;;;;;;;1.77;1.40;;;14.70;99.90;;;;;;4935132;29;20027;-71
2021/07/18 04:51:54;;;;;;;2.20;1.50;;;14.70;99.90;;;;;;4935315;29;20048;-71
2021/07/18 04:54:20;;;;;;;2.22;1.60;;;14.70;99.90;;;;;;4935055;29;20114;-71
2021/07/18 04:56:46;;;;;;;1.92;1.40;;;14.60;99.90;;;;;;4935563;29;20079;-71
2021/07/18 04:59:11;;;;;;;2.30;1.60;;;14.70;99.90;;;;;;4935075;29;20059;-71
2021/07/18 05:01:37;;;;;;;2.70;1.85;;;14.80;99.90;;;;;;4935463;29;20024;-71
2021/07/18 05:04:03;;;;;;;2.53;1.60;;;14.70;99.90;;;;;;4935201;29;20167;-71
2021/07/18 05:06:29;;;;;;;5.50;1.90;;;14.80;99.90;;;;;;4934962;29;20047;-71
2021/07/18 05:08:55;;;;;;;3.38;2.00;;;14.80;99.90;;;;;;4935149;29;20032;-71
2021/07/18 05:11:20;;;;;;;4.07;1.70;;;14.90;99.90;;;;;;4934977;29;20110;-71
2021/07/18 05:13:48;;;;;;;2.22;1.67;;;14.90;99.90;;;;;;4935082;29;20035;-71
2021/07/18 05:16:14;;;;;;;2.80;1.77;;;15.00;99.90;;;;;;4934962;29;20079;-71
2021/07/18 05:18:39;;;;;;;2.80;1.60;;;15.20;99.90;;;;;;4935094;29;20032;-71
2021/07/18 05:21:06;;;;;;;4.00;1.70;;;15.70;99.90;;;;;;4934969;29;20023;-71
2021/07/18 05:23:32;;;;;;;1.80;1.50;;;16.30;99.90;;;;;;4934699;29;20492;-71
2021/07/18 05:25:57;;;;;;;3.25;1.58;;;16.80;99.90;;;;;;4935110;29;20044;-71
2021/07/18 05:28:23;;;;;;;3.67;1.90;;;17.30;99.90;;;;;;4934522;29;20032;-71
2021/07/18 05:30:49;;;;;;;1.77;1.20;;;17.80;99.90;;;;;;4934716;29;20020;-71
2021/07/18 05:33:15;;;;;;;1.65;1.52;;;18.20;99.90;;;;;;4934535;29;20035;-71
2021/07/18 05:35:40;;;;;;;3.40;1.40;;;18.60;99.90;;;;;;4935045;29;20063;-71
2021/07/18 05:38:06;;;;;;;2.05;1.30;;;18.90;99.90;;;;;;4934934;29;20027;-71
2021/07/18 05:40:33;;;;;;;1.70;1.20;;;19.10;99.90;;;;;;4934647;29;20039;-71
2021/07/18 05:42:58;;;;;;;2.20;1.30;;;18.90;99.90;;;;;;4934538;29;20024;-71
2021/07/18 05:45:24;;;;;;;1.98;1.13;;;18.70;99.90;;;;;;4936606;29;20221;-71
2021/07/18 05:47:50;;;;;;;2.17;1.40;;;18.70;99.90;;;;;;4938884;29;20023;-71
2021/07/18 05:50:17;;;;;;;1.98;1.10;;;18.70;99.90;;;;;;4938442;29;20368;-71
2021/07/18 05:52:43;;;;;;;4.90;1.30;;;18.90;99.90;;;;;;4938245;29;20054;-71
2021/07/18 05:55:10;;;;;;;1.77;1.00;;;19.20;99.90;;;;;;4938475;29;20376;-72
2021/07/18 05:57:36;;;;;;;2.70;0.98;;;19.40;99.90;;;;;;4938558;29;20027;-72
2021/07/18 06:00:05;;;;;;;2.40;0.93;;;19.60;99.90;;;;;;4938395;29;20036;-72
2021/07/18 06:02:30;;;;;;;2.95;0.80;;;19.90;99.90;;;;;;4938612;29;20117;-72
2021/07/18 06:04:56;;;;;;;3.28;1.20;;;20.00;99.90;;;;;;4938556;29;20094;-72
2021/07/18 06:07:22;;;;;;;1.92;0.85;;;20.20;99.60;;;;;;4938229;29;20122;-71
2021/07/18 06:09:47;;;;;;;3.08;1.10;;;20.20;98.40;;;;;;4938437;29;20028;-71
2021/07/18 06:12:13;;;;;;;3.13;0.90;;;20.30;98.40;;;;;;4938095;29;20115;-72
2021/07/18 06:14:39;;;;;;;3.95;1.10;;;20.50;97.50;;;;;;4938096;29;20043;-71
2021/07/18 06:17:06;;;;;;;1.70;0.80;;;20.60;96.80;;;;;;4938199;29;20023;-71
2021/07/18 06:19:32;;;;;;;2.70;1.00;;;20.70;96.40;;;;;;4937827;29;20036;-71
2021/07/18 06:21:58;;;;;;;2.97;0.82;;;20.80;95.70;;;;;;4938012;29;20024;-71
2021/07/18 06:24:23;;;;;;;3.17;0.95;;;20.90;94.50;;;;;;4937871;29;20391;-71
2021/07/18 06:26:49;;;;;;;2.38;0.82;;;20.80;93.60;;;;;;4937918;29;20425;-71
2021/07/18 06:29:15;;;;;;;1.80;0.77;;;20.80;93.50;;;;;;4938022;29;20044;-71
2021/07/18 06:31:40;;;;;;;3.47;0.90;;;21.00;93.80;;;;;;4938172;29;20115;-72
2021/07/18 06:34:06;;;;;;;5.82;0.93;;;21.10;93.10;;;;;;4937758;29;20039;-71
2021/07/18 06:36:32;;;;;;;4.85;1.15;;;20.80;92.00;;;;;;4937747;29;20024;-72
2021/07/18 06:39:00;;;;;;;6.50;0.68;;;20.50;92.10;;;;;;4937613;29;20479;-72
2021/07/18 06:41:26;;;;;;;2.70;0.80;;;20.20;91.90;;;;;;4937570;29;20039;-71
2021/07/18 06:43:52;;;;;;;5.15;1.17;;;19.90;91.80;;;;;;4937715;29;20066;-71
2021/07/18 06:46:18;;;;;;;3.63;1.10;;;19.80;91.80;;;;;;4937673;29;20036;-71
2021/07/18 06:48:44;;;;;;;4.68;0.90;;;19.90;92.20;;;;;;4937496;29;20364;-72
2021/07/18 06:51:10;;;;;;;3.90;0.90;;;20.10;92.00;;;;;;4937488;29;20028;-72
2021/07/18 06:53:35;;;;;;;2.92;0.88;;;20.20;91.40;;;;;;4936967;29;20043;-72
2021/07/18 06:56:01;;;;;;;1.48;0.68;;;20.20;90.40;;;;;;4937028;29;20059;-72
2021/07/18 06:58:27;;;;;;;3.70;0.90;;;20.20;90.10;;;;;;4937192;29;20067;-72
2021/07/18 07:00:53;;;;;;;3.40;0.95;;;20.20;90.20;;;;;;4937739;29;20024;-72
2021/07/18 07:03:18;;;;;;;5.13;1.05;;;20.10;89.70;;;;;;4937068;29;20107;-72
2021/07/18 07:05:44;;;;;;;4.20;0.75;;;20.00;88.70;;;;;;4937388;29;20103;-72
2021/07/18 07:08:10;;;;;;;5.57;1.05;;;19.90;88.60;;;;;;4937145;29;20024;-72
2021/07/18 07:10:36;;;;;;;4.07;0.70;;;19.90;89.30;;;;;;4937103;29;20036;-72
2021/07/18 07:13:02;;;;;;;5.68;1.00;;;20.00;89.00;;;;;;4937309;29;20024;-72
2021/07/18 07:15:28;;;;;;;3.85;1.10;;;20.20;89.40;;;;;;4937137;29;20031;-72
2021/07/18 07:17:53;;;;;;;2.53;0.70;;;20.30;88.00;;;;;;4937252;29;20024;-72
2021/07/18 07:20:19;;;;;;;3.40;0.63;;;20.30;86.90;;;;;;4937058;29;20031;-72
2021/07/18 07:22:45;;;;;;;3.00;0.63;;;20.10;85.10;;;;;;4937013;29;20058;-72
2021/07/18 07:25:15;;;;;;;2.97;0.82;;;20.10;85.50;;;;;;4936927;29;20032;-72
2021/07/18 07:27:41;;;;;;;;;;;20.40;86.00;;;;;;4937371;29;20592;-72
2021/07/18 07:30:09;;;;;;;1.60;0.60;;;20.30;82.50;;;;;;4936797;29;19907;-72
2021/07/18 07:32:35;;;;;;;1.83;0.50;;;20.10;83.70;;;;;;4936575;29;20035;-70
2021/07/18 07:35:01;;;;;;;2.03;0.68;;;20.00;85.10;;;;;;4936614;29;20040;-72
2021/07/18 07:37:28;;;;;;;3.97;0.70;;;20.00;83.40;;;;;;4936677;29;20416;-72
2021/07/18 07:39:55;;;;;;;1.83;0.52;;;20.10;84.10;;;;;;4936671;29;20024;-72
2021/07/18 07:42:22;;;;;;;1.63;0.45;;;20.00;83.10;;;;;;4936687;29;20379;-72
2021/07/18 07:44:48;;;;;;;2.15;0.80;;;20.00;83.60;;;;;;4936574;29;20438;-72
2021/07/18 07:47:15;;;;;;;3.10;0.60;;;19.90;82.10;;;;;;4937098;29;20083;-72
2021/07/18 07:49:43;;;;;;;1.52;0.47;;;19.70;81.60;;;;;;4936771;29;20055;-72
2021/07/18 07:52:12;;;;;;;4.18;0.70;;;19.80;82.30;;;;;;4936251;29;20403;-72
2021/07/18 07:54:39;;;;;;;1.67;0.50;;;19.70;81.10;;;;;;4936371;29;20122;-72
2021/07/18 07:57:05;;;;;;;0.75;0.40;;;19.70;82.20;;;;;;4936667;29;20036;-72
2021/07/18 07:59:31;;;;;;;1.85;0.80;;;19.80;82.30;;;;;;4936337;29;20439;-72
2021/07/18 08:01:58;;;;;;;1.95;0.60;;;19.90;81.20;;;;;;4936252;29;20027;-72
2021/07/18 08:04:24;;;;;;;2.05;0.40;;;20.00;81.80;;;;;;4936050;29;20418;-72
2021/07/18 08:06:51;;;;;;;1.50;0.50;;;20.10;81.20;;;;;;4935935;29;20432;-72
2021/07/18 08:09:16;;;;;;;1.10;0.43;;;20.20;81.60;;;;;;4935469;29;20044;-72
2021/07/18 08:11:42;;;;;;;2.22;0.40;;;20.30;80.60;;;;;;4935995;29;20024;-72
2021/07/18 08:14:08;;;;;;;1.63;0.40;;;20.10;79.60;;;;;;4935874;29;20091;-71
2021/07/18 08:16:34;;;;;;;2.08;0.55;;;19.90;80.40;;;;;;4936129;29;20051;-72
2021/07/18 08:19:00;;;;;;;1.65;0.60;;;19.80;80.90;;;;;;4935831;29;20024;-72
2021/07/18 08:21:25;;;;;;;2.35;0.50;;;19.60;81.10;;;;;;4935984;29;20034;-71
2021/07/18 08:23:51;;;;;;;1.65;0.30;;;19.50;82.10;;;;;;4935812;29;20476;-72
2021/07/18 08:26:19;;;;;;;0.75;0.40;;;19.50;82.50;;;;;;4935778;29;20023;-72
2021/07/18 08:28:46;;;;;;;1.15;0.38;;;19.40;82.30;;;;;;4935877;29;20111;-72
2021/07/18 08:31:12;;;;;;;1.02;0.30;;;19.50;82.80;;;;;;4935872;29;20043;-72
2021/07/18 08:33:38;;;;;;;1.45;0.40;;;19.60;82.80;;;;;;4935644;29;20043;-72
2021/07/18 08:36:04;;;;;;;1.25;0.30;;;19.70;82.30;;;;;;4935961;29;20114;-72
2021/07/18 08:38:30;;;;;;;0.38;0.20;;;19.70;80.30;;;;;;4935393;29;20023;-72
2021/07/18 08:40:56;;;;;;;1.10;0.30;;;19.70;80.00;;;;;;4935508;29;20043;-72
2021/07/18 08:43:24;;;;;;;0.55;0.30;;;19.60;80.20;;;;;;4935347;29;20039;-72
2021/07/18 08:45:49;;;;;;;1.20;0.40;;;19.60;80.20;;;;;;4935655;29;20094;-71
2021/07/18 08:48:15;;;;;;;0.65;0.20;;;19.50;80.10;;;;;;4935374;29;20028;-72
2021/07/18 08:50:41;;;;;;;0.38;0.28;;;19.50;78.70;;;;;;4935261;29;20079;-72
2021/07/18 08:53:07;;;;;;;0.63;0.25;;;19.40;78.30;;;;;;4935183;29;20512;-72
2021/07/18 08:55:34;;;;;;;1.35;0.30;;;19.50;78.80;;;;;;4935203;29;20054;-72
2021/07/18 08:58:00;;;;;;;1.00;0.30;;;19.60;79.10;;;;;;4935604;29;20024;-72
2021/07/18 09:00:26;;;;;;;0.55;0.30;;;19.60;78.10;;;;;;4935130;29;20035;-72
2021/07/18 09:02:52;;;;;;;0.68;0.15;;;19.60;77.20;;;;;;4935512;29;20032;-71
2021/07/18 09:05:18;;;;;;;0.98;0.30;;;19.50;76.80;;;;;;4935408;29;20149;-72
2021/07/18 09:07:49;;;;;;;1.08;0.30;;;19.40;77.50;;;;;;4935380;29;20110;-72
2021/07/18 09:10:19;;;;;;;0.60;0.30;;;19.30;77.50;;;;;;4935382;29;20051;-71
2021/07/18 09:13:07;;;;;;;0.32;0.20;;;19.30;78.60;;;;;;4935579;29;20039;-72
2021/07/18 09:15:51;;;;;;;0.38;0.30;;;19.40;79.60;;;;;;4935047;29;20306;-72
2021/07/18 09:18:19;;;;;;;2.80;0.38;;;19.50;80.60;;;;;;4935163;29;20039;-71
2021/07/18 09:20:50;;;;;;;0.22;0.22;;;19.50;79.30;;;;;;4935131;29;20483;-72
2021/07/18 09:23:24;;;;;;;0.30;0.20;;;19.50;79.40;;;;;;4935285;29;20032;-72
2021/07/18 09:25:50;;;;;;;1.20;0.20;;;19.50;78.30;;;;;;4934822;29;20498;-70
2021/07/18 09:28:18;;;;;;;1.27;0.30;;;19.50;75.60;;;;;;4934771;29;20110;-69
2021/07/18 09:30:46;;;;;;;0.47;0.30;;;19.30;75.30;;;;;;4934777;29;20032;-69
2021/07/18 09:33:26;;;;;;;0.50;0.20;;;19.30;76.20;;;;;;4934575;29;20024;-70
2021/07/18 09:36:09;;;;;;;0.65;0.35;;;19.30;74.30;;;;;;4934885;29;20036;-69
2021/07/18 09:38:35;;;;;;;0.40;0.20;;;19.30;75.50;;;;;;4934894;29;20051;-70
2021/07/18 09:41:00;;;;;;;0.43;0.22;;;19.40;75.80;;;;;;4934642;29;20472;-70
2021/07/18 09:43:28;;;;;;;0.30;0.30;;;19.50;75.40;;;;;;4934588;29;20063;-70
2021/07/18 09:46:08;;;;;;;1.80;0.30;;;19.60;76.00;;;;;;4934631;29;20034;-69
2021/07/18 09:48:40;;;;;;;0.77;0.38;;;19.70;76.60;;;;;;4934582;29;20031;-70
2021/07/18 09:51:11;;;;;;;0.70;0.25;;;19.80;76.30;;;;;;4934578;29;20040;-70
2021/07/18 09:53:38;;;;;;;0.60;0.40;;;19.90;75.00;;;;;;4934161;29;20131;-70
2021/07/18 09:56:09;;;;;;;0.30;0.20;;;20.00;75.30;;;;;;4934452;29;20396;-70
2021/07/18 09:58:51;;;;;;;4.80;0.60;;;20.00;74.60;;;;;;4934480;29;20027;-69
2021/07/18 10:01:18;;;;;;;0.77;0.50;;;20.00;72.80;;;;;;4934625;29;20032;-70
2021/07/18 10:03:54;;;;;;;2.17;0.40;;;19.80;72.80;;;;;;4934223;29;20023;-70
2021/07/18 10:06:28;;;;;;;0.57;0.30;;;19.70;72.90;;;;;;4934801;29;20087;-70
2021/07/18 10:08:59;;;;;;;1.33;0.43;;;19.70;73.70;;;;;;4934357;29;20044;-70
2021/07/18 10:11:27;;;;;;;0.30;0.28;;;19.70;75.30;;;;;;4934349;29;20518;-71
2021/07/18 10:13:55;;;;;;;0.20;0.20;;;19.80;75.90;;;;;;4934162;29;20438;-72
2021/07/18 10:16:23;;;;;;;3.33;0.40;;;19.80;75.00;;;;;;4934407;29;20027;-72
2021/07/18 10:18:50;;;;;;;0.30;0.20;;;19.80;75.40;;;;;;4934583;29;20081;-72
2021/07/18 10:21:18;;;;;;;0.65;0.40;;;19.90;75.30;;;;;;4934285;29;20031;-72
2021/07/18 10:23:45;;;;;;;0.40;0.20;;;20.00;76.40;;;;;;4934167;29;20072;-72
2021/07/18 10:26:18;;;;;;;1.88;0.20;;;20.00;76.80;;;;;;4934445;29;20028;-72
2021/07/18 10:28:45;;;;;;;0.40;0.17;;;20.20;75.80;;;;;;4934451;29;20039;-72
2021/07/18 10:31:26;;;;;;;0.50;0.30;;;20.30;74.20;;;;;;4935758;29;20027;-72
2021/07/18 10:33:54;;;;;;;0.35;0.20;;;20.30;72.90;;;;;;4937817;29;20032;-72
2021/07/18 10:36:23;;;;;;;0.95;0.30;;;20.30;72.50;;;;;;4937728;29;20032;-72
2021/07/18 10:38:49;;;;;;;1.08;0.38;;;20.30;71.50;;;;;;4937838;29;20051;-72
2021/07/18 10:41:15;;;;;;;0.52;0.20;;;20.30;71.10;;;;;;4937919;29;20059;-72
2021/07/18 10:43:49;;;;;;;0.40;0.20;;;20.30;71.60;;;;;;4937557;29;20479;-72
2021/07/18 10:46:41;;;;;;;0.60;0.30;;;20.30;70.40;;;;;;4937551;29;20031;-72
2021/07/18 10:49:12;;;;;;;0.40;0.20;;;20.40;71.90;;;;;;4921784;29;20543;-72
2021/07/18 10:51:40;;;;;;;0.60;0.30;;;20.50;72.30;;;;;;4937463;29;20028;-72
2021/07/18 10:54:19;;;;;;;0.73;0.22;;;20.60;70.40;;;;;;4937647;29;20471;-72
2021/07/18 10:56:50;;;;;;;0.35;0.30;;;20.70;69.30;;;;;;4937415;29;20151;-72
2021/07/18 10:59:36;;;;;;;0.50;0.20;;;20.70;69.90;;;;;;4937153;29;20047;-72
2021/07/18 11:02:17;;;;;;;1.95;0.30;;;20.70;70.50;;;;;;4937952;29;20031;-72
2021/07/18 11:04:52;;;;;;;0.30;0.30;;;20.80;68.60;;;;;;4937623;29;20099;-72
2021/07/18 11:07:20;;;;;;;0.80;0.30;;;20.80;70.00;;;;;;4937245;29;20023;-72
2021/07/18 11:09:51;;;;;;;1.40;0.30;;;20.80;69.60;;;;;;4936828;29;20031;-72
2021/07/18 11:12:24;;;;;;;3.42;0.30;;;20.90;69.20;;;;;;4937256;29;20031;-72
2021/07/18 11:14:50;;;;;;;0.20;0.20;;;20.90;68.20;;;;;;4937142;29;20406;-72
2021/07/18 11:17:29;;;;;;;0.32;0.20;;;20.90;65.70;;;;;;4937354;29;20032;-72
2021/07/18 11:20:01;;;;;;;0.60;0.30;;;20.90;65.40;;;;;;4936966;29;20379;-72
2021/07/18 11:23:00;;;;;;;0.47;0.30;;;20.90;66.00;;;;;;4936804;29;20506;-72
2021/07/18 11:25:54;;;;;;;0.50;0.23;;;20.80;66.40;;;;;;4937120;29;20091;-72
2021/07/18 11:28:43;;;;;;;0.30;0.30;;;20.80;66.80;;;;;;4937183;29;20043;-72
2021/07/18 11:31:11;;;;;;;0.60;0.40;;;20.70;68.50;;;;;;4936737;29;20038;-71
2021/07/18 11:33:59;;;;;;;0.45;0.40;;;20.70;69.30;;;;;;4936843;29;20040;-72
2021/07/18 11:36:34;;;;;;;0.38;0.38;;;20.70;69.50;;;;;;4936913;29;20055;-72
2021/07/18 11:39:20;;;;;;;0.32;0.30;;;20.70;69.60;;;;;;4936808;29;20016;-72
2021/07/18 11:41:48;;;;;;;0.30;0.20;;;20.70;70.10;;;;;;4935484;29;20063;-72
2021/07/18 11:44:15;;;;;;;0.85;0.28;;;20.70;69.70;;;;;;4936153;29;20082;-72
2021/07/18 11:46:47;;;;;;;0.47;0.30;;;20.70;70.00;;;;;;4936550;29;20024;-72
2021/07/18 11:49:15;;;;;;;0.20;0.20;;;20.80;71.00;;;;;;4936498;29;20475;-72
2021/07/18 11:51:45;;;;;;;0.38;0.30;;;20.80;70.00;;;;;;4935963;29;20158;-72
2021/07/18 11:54:11;;;;;;;1.23;0.20;;;20.80;70.50;;;;;;4936319;29;20039;-72
2021/07/18 11:56:39;;;;;;;0.43;0.25;;;20.90;70.50;;;;;;4936060;29;20035;-72
2021/07/18 11:59:06;;;;;;;0.30;0.30;;;20.90;69.50;;;;;;4936301;29;20035;-71
2021/07/18 12:01:35;;;;;;;1.85;0.20;;;20.90;69.10;;;;;;4936327;29;20383;-71
2021/07/18 12:04:00;;;;;;;0.30;0.20;;;20.90;68.70;;;;;;4936435;29;20055;-72
2021/07/18 12:06:28;;;;;;;0.57;0.30;;;20.80;67.80;;;;;;4936340;29;20483;-72
2021/07/18 12:08:55;;;;;;;0.77;0.20;;;20.70;68.80;;;;;;4935946;29;20033;-72
2021/07/18 12:11:29;;;;;;;1.13;0.30;;;20.70;69.40;;;;;;4936250;29;20028;-72
2021/07/18 12:13:58;;;;;;;0.20;0.15;;;20.80;70.00;;;;;;4936127;29;20118;-72
2021/07/18 12:16:25;;;;;;;0.35;0.17;;;20.80;69.00;;;;;;4935816;29;20032;-72
2021/07/18 12:18:54;;;;;;;0.98;0.30;;;20.80;69.20;;;;;;4936055;29;20396;-71
2021/07/18 12:21:32;;;;;;;0.85;0.25;;;20.70;69.10;;;;;;4935726;29;20061;-71
2021/07/18 12:24:11;;;;;;;0.70;0.30;;;20.60;70.30;;;;;;4935776;29;20400;-72
2021/07/18 12:26:38;;;;;;;0.70;0.10;;;20.70;69.60;;;;;;4935670;29;20028;-71
2021/07/18 12:29:05;;;;;;;0.88;0.20;;;20.60;68.70;;;;;;4935685;29;20083;-72
2021/07/18 12:31:31;;;;;;;0.38;0.20;;;20.50;69.30;;;;;;4935514;29;20027;-72
2021/07/18 12:33:57;;;;;;;0.50;0.20;;;20.50;69.90;;;;;;4935666;29;20067;-72
2021/07/18 12:36:23;;;;;;;0.47;0.20;;;20.40;69.20;;;;;;4935637;29;20106;-72
2021/07/18 12:38:49;;;;;;;0.30;0.17;;;20.40;68.90;;;;;;4935355;29;20024;-72
2021/07/18 12:41:15;;;;;;;0.73;0.20;;;20.40;68.60;;;;;;4935559;29;20216;-71
2021/07/18 12:43:41;;;;;;;0.20;0.10;;;20.40;68.80;;;;;;4935412;29;20539;-71
2021/07/18 12:46:10;;;;;;;0.38;0.13;;;20.40;68.70;;;;;;4935583;29;20083;-71
2021/07/18 12:48:35;;;;;;;0.50;0.20;;;20.40;67.60;;;;;;4935200;29;20023;-72
2021/07/18 12:51:14;;;;;;;0.28;0.10;;;20.30;68.40;;;;;;4935235;29;20479;-72
2021/07/18 12:53:39;;;;;;;2.05;0.30;;;20.30;67.00;;;;;;4934727;29;20331;-72
2021/07/18 12:56:09;;;;;;;2.20;0.20;;;20.30;66.50;;;;;;4935507;29;20295;-71
2021/07/18 12:58:42;;;;;;;6.35;0.25;;;20.20;65.70;;;;;;4935047;29;20028;-72
2021/07/18 13:01:13;;;;;;;0.10;0.10;;;19.90;65.80;;;;;;4935191;29;20039;-71
2021/07/18 13:03:44;;;;;;;0.80;0.13;;;19.70;66.80;;;;;;4935288;29;20047;-71
2021/07/18 13:06:14;;;;;;;0.52;0.10;;;19.70;68.10;;;;;;4935022;29;20107;-71
2021/07/18 13:08:47;;;;;;;0.13;0.10;;;19.60;68.60;;;;;;4935055;29;20510;-72
2021/07/18 13:11:39;;;;;;;0.10;0.10;;;19.50;69.70;;;;;;4935047;29;20110;-72
2021/07/18 13:14:41;;;;;;;0.20;0.20;;;19.40;72.20;;;;;;4924458;29;20040;-71
2021/07/18 13:17:23;;;;;;;0.30;0.10;;;19.40;73.80;;;;;;4935004;29;20056;-71
2021/07/18 13:20:05;;;;;;;0.50;0.17;;;19.30;73.50;;;;;;4934760;29;20028;-71
2021/07/18 13:22:35;;;;;;;1.13;0.35;;;19.20;73.80;;;;;;4934925;29;20019;-71
2021/07/18 13:25:23;;;;;;;0.20;0.20;;;19.00;74.00;;;;;;4934995;29;20051;-71
2021/07/18 13:27:51;;;;;;;0.10;0.10;;;18.90;74.80;;;;;;4934950;29;20032;-71
2021/07/18 13:30:20;;;;;;;1.02;0.10;;;18.90;75.00;;;;;;4934838;29;20043;-71